Tahoua, Niger
Current Conditions -  °F | °C
As of 1:00 PM on Saturday 25 Oct 2014 (Local Time) from DRRN Reporting Station
Clear Clear  
Wind Chill: 102°   Ceiling: Unl
Heat Index: 102°   Visibility: 5mi
Dew Point: 30°   Wind: 16mph
Humidity: 8%   Direction: 70°ENE
Pressure: 29.83"   Gusts: NA
Location:  14.9°N, 5.26°E
Report Text: DRRN 251200Z 07014KT 040V100 8000 NSC 39/M01 Q1010 NOSIG
Loading
Personal Weather Stations






























Interactive Weather Map
Tropical Storm Tracking
New forecast layout! Learn more

10-Day Weather Forecast

Advertisements
Track Severe Weather on mobile